createdAt,value
2023-04-28T00:01:17.283Z,97912.60
2023-04-28T00:03:44.870Z,97913.44
2023-04-28T00:06:11.889Z,97914.37
2023-04-28T00:08:38.679Z,97914.95
2023-04-28T00:11:10.060Z,97917.62
2023-04-28T00:13:37.644Z,97918.80
2023-04-28T00:16:04.767Z,97918.52
2023-04-28T00:18:33.308Z,97922.02
2023-04-28T00:21:01.799Z,97915.05
2023-04-28T00:23:28.639Z,97914.34
2023-04-28T00:25:55.653Z,97913.59
2023-04-28T00:28:33.553Z,97918.46
2023-04-28T00:31:02.390Z,97915.15
2023-04-28T00:33:29.518Z,97918.35
2023-04-28T00:36:01.267Z,97915.73
2023-04-28T00:38:28.842Z,97919.51
2023-04-28T00:40:55.773Z,97917.98
2023-04-28T00:43:22.671Z,97922.06
2023-04-28T00:45:50.315Z,97922.79
2023-04-28T00:48:17.357Z,97928.21
2023-04-28T00:50:44.752Z,97928.10
2023-04-28T00:53:12.343Z,97927.20
2023-04-28T00:55:39.487Z,97925.98
2023-04-28T00:58:06.914Z,97927.91
2023-04-28T01:00:33.983Z,97929.15
2023-04-28T01:03:01.333Z,97928.20
2023-04-28T01:05:30.054Z,97925.61
2023-04-28T01:07:57.317Z,97925.48
2023-04-28T01:10:24.251Z,97926.41
2023-04-28T01:12:51.087Z,97931.27
2023-04-28T01:15:18.777Z,97929.48
2023-04-28T01:17:47.162Z,97930.45
2023-04-28T01:20:14.801Z,97929.98
2023-04-28T01:22:41.828Z,97928.16
2023-04-28T01:25:08.875Z,97930.34
2023-04-28T01:27:35.778Z,97933.59
2023-04-28T01:30:02.840Z,97936.86
2023-04-28T01:32:29.798Z,97930.75
2023-04-28T01:34:56.803Z,97932.84
2023-04-28T01:37:24.129Z,97936.52
2023-04-28T01:39:50.982Z,97936.81
2023-04-28T01:42:18.967Z,97938.73
2023-04-28T01:44:45.788Z,97939.62
2023-04-28T01:47:12.801Z,97935.98
2023-04-28T01:49:39.918Z,97938.16
2023-04-28T01:52:08.128Z,97937.59
2023-04-28T01:54:35.364Z,97939.98
2023-04-28T01:57:03.290Z,97938.79
2023-04-28T01:59:30.871Z,97936.74
2023-04-28T02:01:57.938Z,97937.47
2023-04-28T02:04:25.166Z,97936.85
2023-04-28T02:06:53.057Z,97938.52
2023-04-28T02:09:20.066Z,97936.61
2023-04-28T02:11:46.971Z,97940.46
2023-04-28T02:14:14.278Z,97939.10
2023-04-28T02:16:41.245Z,97942.41
2023-04-28T02:19:08.222Z,97939.50
2023-04-28T02:21:35.077Z,97937.55
2023-04-28T02:24:02.106Z,97941.09
2023-04-28T02:26:31.384Z,97945.02
2023-04-28T02:28:58.254Z,97945.90
2023-04-28T02:31:25.180Z,97947.81
2023-04-28T02:33:54.513Z,97949.14
2023-04-28T02:36:21.870Z,97950.55
2023-04-28T02:38:48.986Z,97950.72
2023-04-28T02:41:15.873Z,97949.63
2023-04-28T02:43:42.930Z,97948.39
2023-04-28T02:46:10.065Z,97953.71
2023-04-28T02:48:37.580Z,97955.19
2023-04-28T02:51:04.753Z,97955.90
2023-04-28T02:53:32.061Z,97955.71
2023-04-28T02:55:59.686Z,97960.44
2023-04-28T02:58:26.952Z,97958.67
2023-04-28T03:00:53.782Z,97962.52
2023-04-28T03:03:21.128Z,97962.86
2023-04-28T03:05:48.275Z,97965.57
2023-04-28T03:08:16.884Z,97963.90
2023-04-28T03:10:43.719Z,97968.50
2023-04-28T03:13:11.850Z,97970.25
2023-04-28T03:15:38.733Z,97971.73
2023-04-28T03:18:05.658Z,97975.27
2023-04-28T03:20:32.417Z,97977.63
2023-04-28T03:22:59.270Z,97976.75
2023-04-28T03:25:26.433Z,97979.77
2023-04-28T03:27:53.277Z,97983.89
2023-04-28T03:30:20.225Z,97989.43
2023-04-28T03:32:47.036Z,97990.75
2023-04-28T03:35:14.333Z,97990.95
2023-04-28T03:37:41.215Z,97992.35
2023-04-28T03:40:09.302Z,97990.81
2023-04-28T03:43:05.226Z,97993.35
2023-04-28T03:45:39.391Z,97996.23
2023-04-28T03:48:07.271Z,98000.34
2023-04-28T03:50:34.200Z,98003.86
2023-04-28T03:53:01.268Z,98002.50
2023-04-28T03:55:29.179Z,98003.73
2023-04-28T03:57:56.592Z,98006.95
2023-04-28T04:00:23.655Z,98002.98
2023-04-28T04:02:51.690Z,98009.04
2023-04-28T04:05:18.722Z,98007.40
2023-04-28T04:07:45.748Z,98007.73
2023-04-28T04:10:13.064Z,98005.81
2023-04-28T04:12:42.175Z,98009.83
2023-04-28T04:15:09.623Z,98014.64
2023-04-28T04:17:37.206Z,98011.12
2023-04-28T04:20:04.581Z,98014.54
2023-04-28T04:22:31.383Z,98013.58
2023-04-28T04:24:58.153Z,98012.52
2023-04-28T04:27:26.725Z,98016.56
2023-04-28T04:29:54.356Z,98015.90
2023-04-28T04:32:21.177Z,98014.70
2023-04-28T04:34:48.076Z,98015.66
2023-04-28T04:37:15.123Z,98019.61
2023-04-28T04:39:52.027Z,98019.04
2023-04-28T04:42:25.396Z,98020.14
2023-04-28T04:45:13.762Z,98022.66
2023-04-28T04:47:42.161Z,98020.70
2023-04-28T04:50:09.499Z,98024.86
2023-04-28T04:52:36.265Z,98020.46
2023-04-28T04:55:03.465Z,98022.14
2023-04-28T04:57:30.453Z,98023.81
2023-04-28T05:00:18.639Z,98024.60
2023-04-28T05:02:45.762Z,98027.27
2023-04-28T05:05:21.402Z,98031.27
2023-04-28T05:08:03.963Z,98030.98
2023-04-28T05:10:30.905Z,98029.04
2023-04-28T05:12:58.986Z,98033.52
2023-04-28T05:15:26.311Z,98034.17
2023-04-28T05:18:19.392Z,98034.04
2023-04-28T05:20:46.541Z,98033.31
2023-04-28T05:23:16.867Z,98035.64
2023-04-28T05:25:44.079Z,98033.32
2023-04-28T05:28:11.032Z,98039.30
2023-04-28T05:30:38.020Z,98037.13
2023-04-28T05:33:05.053Z,98036.03
2023-04-28T05:35:32.365Z,98041.08
2023-04-28T05:37:59.659Z,98039.98
2023-04-28T05:40:26.988Z,98042.48
2023-04-28T05:42:55.082Z,98047.67
2023-04-28T05:45:22.233Z,98047.06
2023-04-28T05:47:49.125Z,98046.52
2023-04-28T05:50:17.230Z,98045.05
2023-04-28T05:52:44.055Z,98047.38
2023-04-28T05:55:10.917Z,98048.21
2023-04-28T05:57:49.250Z,98050.48
2023-04-28T06:00:19.937Z,98051.20
2023-04-28T06:02:46.962Z,98049.95
2023-04-28T06:05:14.533Z,98051.08
2023-04-28T06:07:42.436Z,98056.19
2023-04-28T06:10:09.793Z,98056.84
2023-04-28T06:12:37.555Z,98058.08
2023-04-28T06:15:05.986Z,98057.48
2023-04-28T06:17:34.200Z,98061.92
2023-04-28T06:20:01.101Z,98060.08
2023-04-28T06:22:28.213Z,98058.42
2023-04-28T06:24:55.403Z,98059.64
2023-04-28T06:27:33.222Z,98066.55
2023-04-28T06:30:00.008Z,98064.81
2023-04-28T06:32:26.926Z,98069.33
2023-04-28T06:34:53.817Z,98068.77
2023-04-28T06:37:20.885Z,98068.36
2023-04-28T06:39:47.976Z,98069.65
2023-04-28T06:42:18.603Z,98066.89
2023-04-28T06:44:52.298Z,98068.77
2023-04-28T06:47:20.134Z,98066.50
2023-04-28T06:49:50.270Z,98065.75
2023-04-28T06:52:17.145Z,98070.03
2023-04-28T06:54:43.980Z,98065.27
2023-04-28T06:57:11.433Z,98065.56
2023-04-28T06:59:38.312Z,98066.92
2023-04-28T07:02:05.392Z,98069.04
2023-04-28T07:04:32.315Z,98069.36
2023-04-28T07:06:59.080Z,98067.73
2023-04-28T07:09:26.305Z,98069.77
2023-04-28T07:11:53.783Z,98065.36
2023-04-28T07:14:20.785Z,98067.30
2023-04-28T07:16:48.172Z,98067.25
2023-04-28T07:19:15.357Z,98068.33
2023-04-28T07:21:42.210Z,98067.66
2023-04-28T07:24:09.098Z,98064.02
2023-04-28T07:26:36.297Z,98068.36
2023-04-28T07:29:03.079Z,98066.09
2023-04-28T07:31:29.907Z,98067.45
2023-04-28T07:33:56.906Z,98067.91
2023-04-28T07:36:23.689Z,98065.30
2023-04-28T07:38:50.650Z,98064.15
2023-04-28T07:41:17.584Z,98066.94
2023-04-28T07:43:44.430Z,98064.54
2023-04-28T07:46:12.908Z,98061.32
2023-04-28T07:48:39.975Z,98064.63
2023-04-28T07:51:07.103Z,98063.34
2023-04-28T07:53:34.114Z,98060.21
2023-04-28T07:56:01.199Z,98059.40
2023-04-28T07:58:28.154Z,98058.80
2023-04-28T08:00:54.958Z,98061.76
2023-04-28T08:03:22.149Z,98058.64
2023-04-28T08:05:49.386Z,98058.95
2023-04-28T08:08:16.517Z,98057.30
2023-04-28T08:10:44.090Z,98056.63
2023-04-28T08:13:11.055Z,98055.52
2023-04-28T08:15:37.882Z,98050.02
2023-04-28T08:18:04.852Z,98049.73
2023-04-28T08:20:32.742Z,98048.54
2023-04-28T08:22:59.708Z,98047.85
2023-04-28T08:25:26.618Z,98048.11
2023-04-28T08:27:57.102Z,98048.73
2023-04-28T08:30:24.544Z,98050.73
2023-04-28T08:32:51.728Z,98047.69
2023-04-28T08:35:19.413Z,98047.13
2023-04-28T08:37:49.572Z,98044.36
2023-04-28T08:40:16.697Z,98046.64
2023-04-28T08:42:46.008Z,98041.41
2023-04-28T08:45:16.221Z,98041.81
2023-04-28T08:47:46.045Z,98033.77
2023-04-28T08:50:13.817Z,98033.17
2023-04-28T08:52:42.472Z,98030.32
2023-04-28T08:55:10.876Z,98029.13
2023-04-28T08:57:45.521Z,98028.36
2023-04-28T09:00:12.780Z,98029.38
2023-04-28T09:02:42.662Z,98027.52
2023-04-28T09:05:11.382Z,98025.17
2023-04-28T09:07:38.504Z,98026.06
2023-04-28T09:10:24.717Z,98027.53
2023-04-28T09:12:52.872Z,98027.48
2023-04-28T09:15:36.496Z,98027.73
2023-04-28T09:18:04.557Z,98027.86
2023-04-28T09:20:32.862Z,98018.36
2023-04-28T09:23:19.875Z,98020.79
2023-04-28T09:25:59.262Z,98019.83
2023-04-28T09:28:26.438Z,98021.36
2023-04-28T09:30:53.459Z,98021.98
2023-04-28T09:33:21.952Z,98018.78
2023-04-28T09:35:49.038Z,98017.86
2023-04-28T09:38:16.557Z,98018.08
2023-04-28T09:41:03.690Z,98014.45
2023-04-28T09:43:32.346Z,98012.94
2023-04-28T09:46:04.223Z,98016.97
2023-04-28T09:48:35.868Z,98017.34
2023-04-28T09:51:06.210Z,98013.58
2023-04-28T09:53:33.430Z,98012.31
2023-04-28T09:56:02.492Z,98003.17
2023-04-28T09:58:29.881Z,98004.60
2023-04-28T10:00:58.158Z,98000.38
2023-04-28T10:03:28.651Z,97996.69
2023-04-28T10:06:00.202Z,97995.39
2023-04-28T10:08:28.029Z,97994.40
2023-04-28T10:10:54.978Z,97993.70
2023-04-28T10:13:22.800Z,97986.05
2023-04-28T10:15:55.942Z,97982.30
2023-04-28T10:18:23.498Z,97985.33
2023-04-28T10:21:01.116Z,97985.82
2023-04-28T10:23:31.450Z,97973.61
2023-04-28T10:25:59.842Z,97981.00
2023-04-28T10:28:27.097Z,97986.89
2023-04-28T10:31:13.515Z,97978.85
2023-04-28T10:33:41.258Z,97981.39
2023-04-28T10:36:08.293Z,97984.84
2023-04-28T10:38:36.135Z,97982.38
2023-04-28T10:41:03.600Z,97980.60
2023-04-28T10:43:33.214Z,97979.91
2023-04-28T10:46:04.085Z,97977.55
2023-04-28T10:48:34.497Z,97976.27
2023-04-28T10:51:09.476Z,97979.17
2023-04-28T10:53:45.998Z,97977.23
2023-04-28T10:56:25.139Z,97978.23
2023-04-28T10:58:52.879Z,97974.32
2023-04-28T11:01:25.143Z,97973.89
2023-04-28T11:04:00.968Z,97973.41
2023-04-28T11:06:36.483Z,97972.91
2023-04-28T11:11:59.747Z,97969.41
2023-04-28T11:14:26.604Z,97968.10
2023-04-28T11:16:55.080Z,97964.82
2023-04-28T11:19:26.337Z,97965.01
2023-04-28T11:21:55.195Z,97960.13
2023-04-28T11:24:23.060Z,97962.33
2023-04-28T11:26:50.672Z,97962.78
2023-04-28T11:29:17.816Z,97963.34
2023-04-28T11:31:51.426Z,97962.05
2023-04-28T11:34:24.368Z,97963.37
2023-04-28T11:36:52.285Z,97961.19
2023-04-28T11:39:29.075Z,97960.14
2023-04-28T11:41:56.104Z,97958.09
2023-04-28T11:44:24.579Z,97952.91
2023-04-28T11:49:44.743Z,97949.48
2023-04-28T11:52:11.886Z,97944.83
2023-04-28T11:54:38.884Z,97940.59
2023-04-28T11:57:06.161Z,97942.58
2023-04-28T11:59:34.454Z,97939.17
2023-04-28T12:02:01.855Z,97939.30
2023-04-28T12:04:30.731Z,97934.53
2023-04-28T12:07:12.732Z,97932.55
2023-04-28T12:09:41.144Z,97933.14
2023-04-28T12:12:10.189Z,97925.67
2023-04-28T12:15:06.288Z,97925.80
2023-04-28T12:17:34.684Z,97920.23
2023-04-28T12:20:04.210Z,97921.17
2023-04-28T12:22:31.252Z,97920.46
2023-04-28T12:25:08.766Z,97919.33
2023-04-28T12:27:40.660Z,97911.56
2023-04-28T12:30:20.875Z,97914.58
2023-04-28T12:32:48.245Z,97907.73
2023-04-28T12:35:16.162Z,97910.37
2023-04-28T12:37:43.682Z,97906.73
2023-04-28T12:40:10.947Z,97903.57
2023-04-28T12:42:38.398Z,97898.73
2023-04-28T12:45:06.881Z,97892.70
2023-04-28T12:47:33.873Z,97887.73
2023-04-28T12:50:01.065Z,97891.30
2023-04-28T12:52:28.042Z,97886.33
2023-04-28T12:54:54.807Z,97884.08
2023-04-28T12:57:21.584Z,97881.21
2023-04-28T12:59:48.556Z,97878.27
2023-04-28T13:02:15.550Z,97873.83
2023-04-28T13:04:46.618Z,97877.58
2023-04-28T13:07:14.291Z,97875.08
2023-04-28T13:09:43.161Z,97872.63
2023-04-28T13:12:11.852Z,97868.42
2023-04-28T13:14:38.906Z,97864.48
2023-04-28T13:17:06.093Z,97862.52
2023-04-28T13:19:34.877Z,97858.64
2023-04-28T13:22:05.336Z,97858.60
2023-04-28T13:24:36.296Z,97854.95
2023-04-28T13:27:04.174Z,97857.20
2023-04-28T13:29:31.121Z,97850.21
2023-04-28T13:31:57.942Z,97846.61
2023-04-28T13:34:25.058Z,97845.48
2023-04-28T13:36:54.096Z,97839.59
2023-04-28T13:39:22.232Z,97834.77
2023-04-28T13:41:49.597Z,97836.88
2023-04-28T13:44:16.598Z,97837.90
2023-04-28T13:46:43.741Z,97841.20
2023-04-28T13:49:10.782Z,97837.41
2023-04-28T13:51:37.796Z,97834.23
2023-04-28T13:54:08.677Z,97829.25
2023-04-28T13:56:36.699Z,97825.64
2023-04-28T13:59:03.820Z,97818.56
2023-04-28T14:01:30.987Z,97817.45
2023-04-28T14:03:58.240Z,97819.86
2023-04-28T14:06:26.120Z,97815.82
2023-04-28T14:08:53.162Z,97812.20
2023-04-28T14:11:19.983Z,97807.71
2023-04-28T14:13:46.991Z,97800.98
2023-04-28T14:16:13.962Z,97802.74
2023-04-28T14:18:41.365Z,97798.99
2023-04-28T14:21:08.622Z,97797.45
2023-04-28T14:23:35.723Z,97798.31
2023-04-28T14:26:02.743Z,97795.16
2023-04-28T14:28:29.605Z,97784.57
2023-04-28T14:30:57.088Z,97776.89
2023-04-28T14:33:24.437Z,97780.58
2023-04-28T14:35:51.229Z,97780.13
2023-04-28T14:38:18.137Z,97781.80
2023-04-28T14:40:44.987Z,97778.38
2023-04-28T14:43:11.931Z,97774.77
2023-04-28T14:45:38.817Z,97776.65
2023-04-28T14:48:07.707Z,97773.87
2023-04-28T14:50:34.587Z,97771.70
2023-04-28T14:53:05.582Z,97769.33
2023-04-28T14:55:33.167Z,97764.13
2023-04-28T14:57:59.922Z,97765.60
2023-04-28T15:00:26.704Z,97766.84
2023-04-28T15:02:53.777Z,97763.37
2023-04-28T15:05:20.815Z,97762.38
2023-04-28T15:07:48.147Z,97761.27
2023-04-28T15:10:15.346Z,97762.23
2023-04-28T15:12:43.225Z,97757.88
2023-04-28T15:15:10.300Z,97757.38
2023-04-28T15:17:37.258Z,97756.73
2023-04-28T15:20:05.557Z,97760.69
2023-04-28T15:22:32.430Z,97755.44
2023-04-28T15:24:59.307Z,97751.61
2023-04-28T15:27:26.157Z,97749.04
2023-04-28T15:29:53.303Z,97745.99
2023-04-28T15:32:20.090Z,97744.90
2023-04-28T15:34:48.205Z,97746.86
2023-04-28T15:37:37.302Z,97746.83
2023-04-28T15:40:05.325Z,97745.09
2023-04-28T15:42:32.923Z,97744.94
2023-04-28T15:44:59.838Z,97743.74
2023-04-28T15:47:26.760Z,97742.48
2023-04-28T15:49:53.727Z,97746.31
2023-04-28T15:52:22.515Z,97742.86
2023-04-28T15:54:49.577Z,97743.80
2023-04-28T15:57:16.858Z,97741.95
2023-04-28T15:59:43.649Z,97746.14
2023-04-28T16:02:10.478Z,97746.02
2023-04-28T16:04:38.229Z,97747.61
2023-04-28T16:07:05.122Z,97744.77
2023-04-28T16:09:32.642Z,97742.30
2023-04-28T16:12:00.177Z,97739.91
2023-04-28T16:14:27.088Z,97742.39
2023-04-28T16:16:54.076Z,97739.16
2023-04-28T16:19:21.842Z,97734.86
2023-04-28T16:21:48.613Z,97732.23
2023-04-28T16:24:15.437Z,97733.27
2023-04-28T16:26:43.790Z,97732.16
2023-04-28T16:29:12.837Z,97732.70
2023-04-28T16:31:41.280Z,97728.48
2023-04-28T16:34:08.117Z,97723.97
2023-04-28T16:36:35.015Z,97721.41
2023-04-28T16:39:01.909Z,97727.63
2023-04-28T16:41:28.730Z,97726.60
2023-04-28T16:43:55.790Z,97720.92
2023-04-28T16:46:22.892Z,97719.08
2023-04-28T16:48:49.852Z,97722.37
2023-04-28T16:51:17.181Z,97725.64
2023-04-28T16:53:44.045Z,97729.69
2023-04-28T16:56:11.346Z,97727.31
2023-04-28T16:58:38.528Z,97727.91
2023-04-28T17:01:05.334Z,97723.40
2023-04-28T17:03:32.859Z,97725.77
2023-04-28T17:06:00.105Z,97720.39
2023-04-28T17:08:26.975Z,97722.19
2023-04-28T17:10:53.986Z,97727.13
2023-04-28T17:13:21.263Z,97724.38
2023-04-28T17:15:54.592Z,97725.88
2023-04-28T17:18:21.776Z,97725.60
2023-04-28T17:20:48.736Z,97729.91
2023-04-28T17:23:15.808Z,97733.30
2023-04-28T17:25:42.898Z,97730.06
2023-04-28T17:28:09.999Z,97726.39
2023-04-28T17:30:37.710Z,97734.98
2023-04-28T17:33:04.839Z,97737.62
2023-04-28T17:35:31.660Z,97737.36
2023-04-28T17:37:58.598Z,97737.34
2023-04-28T17:40:25.703Z,97737.26
2023-04-28T17:42:54.581Z,97734.73
2023-04-28T17:45:21.575Z,97739.32
2023-04-28T17:47:49.910Z,97737.63
2023-04-28T17:50:17.724Z,97741.17
2023-04-28T17:52:44.753Z,97738.04
2023-04-28T17:55:12.047Z,97737.38
2023-04-28T17:57:39.282Z,97744.33
2023-04-28T18:00:06.940Z,97742.38
2023-04-28T18:02:38.844Z,97743.36
2023-04-28T18:05:07.407Z,97744.73
2023-04-28T18:07:34.340Z,97746.39
2023-04-28T18:10:01.470Z,97744.40
2023-04-28T18:12:28.368Z,97745.88
2023-04-28T18:14:55.507Z,97749.23
2023-04-28T18:17:23.562Z,97747.71
2023-04-28T18:19:55.138Z,97745.93
2023-04-28T18:22:22.046Z,97742.19
2023-04-28T18:24:49.949Z,97748.75
2023-04-28T18:27:17.023Z,97748.75
2023-04-28T18:29:43.796Z,97748.92
2023-04-28T18:32:13.599Z,97752.94
2023-04-28T18:34:42.115Z,97749.69
2023-04-28T18:37:09.574Z,97755.23
2023-04-28T18:39:38.531Z,97755.86
2023-04-28T18:42:05.844Z,97755.71
2023-04-28T18:44:32.844Z,97756.09
2023-04-28T18:47:00.288Z,97759.76
2023-04-28T18:49:27.712Z,97755.44
2023-04-28T18:51:54.631Z,97759.27
2023-04-28T18:54:21.471Z,97759.52
2023-04-28T18:56:48.727Z,97756.89
2023-04-28T18:59:15.552Z,97760.37
2023-04-28T19:01:42.702Z,97756.55
2023-04-28T19:04:10.055Z,97753.45
2023-04-28T19:06:37.363Z,97756.63
2023-04-28T19:09:04.218Z,97752.36
2023-04-28T19:11:31.263Z,97752.84
2023-04-28T19:13:58.170Z,97748.96
2023-04-28T19:16:25.367Z,97748.98
2023-04-28T19:18:52.756Z,97746.29
2023-04-28T19:21:20.175Z,97750.61
2023-04-28T19:23:48.428Z,97748.41
2023-04-28T19:26:15.863Z,97747.48
2023-04-28T19:28:43.233Z,97748.35
2023-04-28T19:31:10.388Z,97748.34
2023-04-28T19:33:37.255Z,97748.25
2023-04-28T19:36:06.112Z,97742.98
2023-04-28T19:38:34.603Z,97741.02
2023-04-28T19:41:01.486Z,97738.11
2023-04-28T19:43:28.372Z,97735.69
2023-04-28T19:45:55.468Z,97733.95
2023-04-28T19:48:23.320Z,97732.48
2023-04-28T19:50:50.276Z,97732.38
2023-04-28T19:53:17.802Z,97729.89
2023-04-28T19:55:44.734Z,97722.42
2023-04-28T19:58:12.168Z,97725.40
2023-04-28T20:00:39.452Z,97725.84
2023-04-28T20:03:07.099Z,97721.94
2023-04-28T20:05:34.270Z,97720.89
2023-04-28T20:08:02.500Z,97721.70
2023-04-28T20:10:29.521Z,97726.85
2023-04-28T20:12:56.468Z,97726.17
2023-04-28T20:15:23.371Z,97725.16
2023-04-28T20:17:50.790Z,97723.73
2023-04-28T20:20:18.252Z,97727.60
2023-04-28T20:22:45.180Z,97723.63
2023-04-28T20:25:12.300Z,97725.86
2023-04-28T20:27:39.391Z,97722.15
2023-04-28T20:30:08.053Z,97724.30
2023-04-28T20:32:35.246Z,97726.50
2023-04-28T20:35:03.706Z,97731.34
2023-04-28T20:37:30.765Z,97733.71
2023-04-28T20:39:57.825Z,97732.64
2023-04-28T20:42:25.987Z,97733.00
2023-04-28T20:44:52.862Z,97729.02
2023-04-28T20:47:20.020Z,97729.91
2023-04-28T20:49:47.533Z,97727.61
2023-04-28T20:52:14.368Z,97728.06
2023-04-28T20:54:43.753Z,97729.97
2023-04-28T20:57:11.490Z,97728.25
2023-04-28T20:59:38.392Z,97732.52
2023-04-28T21:02:05.339Z,97728.55
2023-04-28T21:04:32.193Z,97732.09
2023-04-28T21:06:59.045Z,97733.17
2023-04-28T21:09:26.737Z,97732.46
2023-04-28T21:11:53.763Z,97733.64
2023-04-28T21:14:22.087Z,97730.14
2023-04-28T21:16:49.461Z,97732.30
2023-04-28T21:19:17.189Z,97733.69
2023-04-28T21:21:44.033Z,97731.45
2023-04-28T21:24:10.870Z,97735.90
2023-04-28T21:26:37.781Z,97734.56
2023-04-28T21:29:04.547Z,97737.01
2023-04-28T21:31:31.376Z,97737.90
2023-04-28T21:33:58.625Z,97738.54
2023-04-28T21:36:25.495Z,97742.48
2023-04-28T21:38:52.349Z,97745.27
2023-04-28T21:41:19.213Z,97746.34
2023-04-28T21:43:45.976Z,97748.88
2023-04-28T21:46:13.246Z,97744.02
2023-04-28T21:48:40.137Z,97740.45
2023-04-28T21:51:07.053Z,97739.73
2023-04-28T21:53:34.064Z,97740.60
2023-04-28T21:56:00.939Z,97741.61
2023-04-28T21:58:27.688Z,97740.62
2023-04-28T22:00:55.225Z,97734.75
2023-04-28T22:03:22.295Z,97734.27
2023-04-28T22:05:49.321Z,97732.58
2023-04-28T22:08:17.072Z,97729.27
2023-04-28T22:10:45.631Z,97726.11
2023-04-28T22:13:13.010Z,97722.48
2023-04-28T22:15:40.080Z,97721.98
2023-04-28T22:18:08.420Z,97717.86
2023-04-28T22:20:35.894Z,97715.64
2023-04-28T22:23:02.717Z,97717.42
2023-04-28T22:25:29.512Z,97715.10
2023-04-28T22:27:56.493Z,97714.99
2023-04-28T22:30:25.793Z,97715.69
2023-04-28T22:32:53.382Z,97714.44
2023-04-28T22:35:20.274Z,97712.66
2023-04-28T22:37:47.057Z,97710.31
2023-04-28T22:40:13.859Z,97709.11
2023-04-28T22:42:41.529Z,97706.75
2023-04-28T22:45:10.246Z,97706.89
2023-04-28T22:47:38.661Z,97704.93
2023-04-28T22:50:08.030Z,97704.05
2023-04-28T22:52:34.934Z,97701.85
2023-04-28T22:55:01.688Z,97701.53
2023-04-28T22:57:28.695Z,97698.60
2023-04-28T22:59:55.499Z,97697.83
2023-04-28T23:02:23.115Z,97694.83
2023-04-28T23:04:50.337Z,97690.67
2023-04-28T23:07:17.448Z,97690.06
2023-04-28T23:09:44.315Z,97693.74
2023-04-28T23:12:11.192Z,97692.41
2023-04-28T23:14:38.256Z,97689.91
2023-04-28T23:17:05.362Z,97687.60
2023-04-28T23:19:32.164Z,97689.17
2023-04-28T23:21:58.967Z,97686.46
2023-04-28T23:24:27.230Z,97682.36
2023-04-28T23:28:41.580Z,97681.13
2023-04-28T23:31:08.453Z,97677.46
2023-04-28T23:33:35.237Z,97675.02
2023-04-28T23:36:02.090Z,97671.95
2023-04-28T23:38:29.141Z,97673.90
2023-04-28T23:40:56.129Z,97672.55
2023-04-28T23:43:22.858Z,97668.45
2023-04-28T23:45:49.865Z,97668.19
2023-04-28T23:48:17.354Z,97665.61
2023-04-28T23:50:45.113Z,97665.84
2023-04-28T23:53:11.996Z,97666.80
2023-04-28T23:55:38.768Z,97668.39
2023-04-28T23:58:05.630Z,97665.14
